sensor_id;sensor_type;location;lat;lon;timestamp;P1;durP1;ratioP1;P2;durP2;ratioP2
5454;SDS011;2750;49.050;9.250;2023-05-15T00:04:23;10.90;;;9.70;;
5454;SDS011;2750;49.050;9.250;2023-05-15T00:09:25;10.23;;;8.63;;
5454;SDS011;2750;49.050;9.250;2023-05-15T00:14:27;11.90;;;10.23;;
5454;SDS011;2750;49.050;9.250;2023-05-15T00:19:29;12.53;;;10.40;;
5454;SDS011;2750;49.050;9.250;2023-05-15T00:24:31;11.43;;;9.63;;
5454;SDS011;2750;49.050;9.250;2023-05-15T00:29:32;11.77;;;9.40;;
5454;SDS011;2750;49.050;9.250;2023-05-15T00:34:35;12.73;;;10.70;;
5454;SDS011;2750;49.050;9.250;2023-05-15T00:39:37;9.67;;;8.57;;
5454;SDS011;2750;49.050;9.250;2023-05-15T00:44:38;11.63;;;10.07;;
5454;SDS011;2750;49.050;9.250;2023-05-15T00:49:42;8.67;;;7.67;;
5454;SDS011;2750;49.050;9.250;2023-05-15T00:54:45;12.13;;;8.37;;
5454;SDS011;2750;49.050;9.250;2023-05-15T00:59:46;9.77;;;8.17;;
5454;SDS011;2750;49.050;9.250;2023-05-15T01:04:51;9.40;;;8.40;;
5454;SDS011;2750;49.050;9.250;2023-05-15T01:09:52;9.13;;;8.23;;
5454;SDS011;2750;49.050;9.250;2023-05-15T01:14:55;8.83;;;7.60;;
5454;SDS011;2750;49.050;9.250;2023-05-15T01:19:58;8.53;;;7.17;;
5454;SDS011;2750;49.050;9.250;2023-05-15T01:30:47;10.60;;;9.03;;
5454;SDS011;2750;49.050;9.250;2023-05-15T01:35:52;10.53;;;9.50;;
5454;SDS011;2750;49.050;9.250;2023-05-15T01:41:00;11.03;;;9.00;;
5454;SDS011;2750;49.050;9.250;2023-05-15T01:46:07;10.50;;;8.57;;
5454;SDS011;2750;49.050;9.250;2023-05-15T01:51:11;7.10;;;6.40;;
5454;SDS011;2750;49.050;9.250;2023-05-15T01:56:15;7.83;;;5.93;;
5454;SDS011;2750;49.050;9.250;2023-05-15T02:01:20;10.90;;;7.47;;
5454;SDS011;2750;49.050;9.250;2023-05-15T02:06:23;8.10;;;6.93;;
5454;SDS011;2750;49.050;9.250;2023-05-15T02:11:26;8.33;;;7.50;;
5454;SDS011;2750;49.050;9.250;2023-05-15T02:16:28;9.80;;;8.40;;
5454;SDS011;2750;49.050;9.250;2023-05-15T02:21:30;8.33;;;7.43;;
5454;SDS011;2750;49.050;9.250;2023-05-15T02:26:34;9.10;;;7.20;;
5454;SDS011;2750;49.050;9.250;2023-05-15T02:31:44;8.60;;;7.43;;
5454;SDS011;2750;49.050;9.250;2023-05-15T02:36:52;9.47;;;8.13;;
5454;SDS011;2750;49.050;9.250;2023-05-15T02:41:58;9.13;;;8.23;;
5454;SDS011;2750;49.050;9.250;2023-05-15T02:47:02;9.93;;;8.77;;
5454;SDS011;2750;49.050;9.250;2023-05-15T02:52:05;9.00;;;8.07;;
5454;SDS011;2750;49.050;9.250;2023-05-15T02:57:07;10.43;;;8.43;;
5454;SDS011;2750;49.050;9.250;2023-05-15T03:02:10;11.63;;;9.03;;
5454;SDS011;2750;49.050;9.250;2023-05-15T03:07:11;7.80;;;7.00;;
5454;SDS011;2750;49.050;9.250;2023-05-15T03:12:13;9.60;;;8.60;;
5454;SDS011;2750;49.050;9.250;2023-05-15T03:17:16;9.77;;;8.63;;
5454;SDS011;2750;49.050;9.250;2023-05-15T03:22:18;11.13;;;9.33;;
5454;SDS011;2750;49.050;9.250;2023-05-15T03:27:19;9.70;;;8.40;;
5454;SDS011;2750;49.050;9.250;2023-05-15T03:32:22;10.33;;;8.03;;
5454;SDS011;2750;49.050;9.250;2023-05-15T03:37:24;12.03;;;8.80;;
5454;SDS011;2750;49.050;9.250;2023-05-15T03:42:25;7.93;;;7.13;;
5454;SDS011;2750;49.050;9.250;2023-05-15T03:47:29;10.00;;;7.50;;
5454;SDS011;2750;49.050;9.250;2023-05-15T03:52:31;9.63;;;8.10;;
5454;SDS011;2750;49.050;9.250;2023-05-15T03:57:32;8.63;;;7.73;;
5454;SDS011;2750;49.050;9.250;2023-05-15T04:02:36;8.93;;;7.50;;
5454;SDS011;2750;49.050;9.250;2023-05-15T04:07:38;9.00;;;8.10;;
5454;SDS011;2750;49.050;9.250;2023-05-15T04:12:39;10.17;;;9.03;;
5454;SDS011;2750;49.050;9.250;2023-05-15T04:17:42;10.27;;;8.90;;
5454;SDS011;2750;49.050;9.250;2023-05-15T04:22:44;10.63;;;8.03;;
5454;SDS011;2750;49.050;9.250;2023-05-15T04:27:46;8.50;;;7.23;;
5454;SDS011;2750;49.050;9.250;2023-05-15T04:32:49;10.17;;;7.50;;
5454;SDS011;2750;49.050;9.250;2023-05-15T04:37:51;9.70;;;7.93;;
5454;SDS011;2750;49.050;9.250;2023-05-15T04:42:53;9.57;;;7.57;;
5454;SDS011;2750;49.050;9.250;2023-05-15T04:47:56;9.17;;;7.23;;
5454;SDS011;2750;49.050;9.250;2023-05-15T04:52:57;9.90;;;7.67;;
5454;SDS011;2750;49.050;9.250;2023-05-15T04:57:59;7.63;;;6.87;;
5454;SDS011;2750;49.050;9.250;2023-05-15T05:03:02;9.97;;;7.50;;
5454;SDS011;2750;49.050;9.250;2023-05-15T05:08:03;8.90;;;7.60;;
5454;SDS011;2750;49.050;9.250;2023-05-15T05:13:05;8.43;;;7.63;;
5454;SDS011;2750;49.050;9.250;2023-05-15T05:18:08;7.13;;;6.43;;
5454;SDS011;2750;49.050;9.250;2023-05-15T05:23:10;9.07;;;6.83;;
5454;SDS011;2750;49.050;9.250;2023-05-15T05:28:13;7.90;;;7.10;;
5454;SDS011;2750;49.050;9.250;2023-05-15T05:33:16;6.33;;;5.73;;
5454;SDS011;2750;49.050;9.250;2023-05-15T05:38:18;6.93;;;6.27;;
5454;SDS011;2750;49.050;9.250;2023-05-15T05:43:20;7.53;;;6.80;;
5454;SDS011;2750;49.050;9.250;2023-05-15T05:48:22;7.70;;;6.53;;
5454;SDS011;2750;49.050;9.250;2023-05-15T05:53:25;6.70;;;6.10;;
5454;SDS011;2750;49.050;9.250;2023-05-15T05:58:27;7.37;;;6.77;;
5454;SDS011;2750;49.050;9.250;2023-05-15T06:03:29;7.50;;;6.90;;
5454;SDS011;2750;49.050;9.250;2023-05-15T06:08:31;7.03;;;6.43;;
5454;SDS011;2750;49.050;9.250;2023-05-15T06:13:32;7.40;;;6.70;;
5454;SDS011;2750;49.050;9.250;2023-05-15T06:18:36;8.70;;;7.90;;
5454;SDS011;2750;49.050;9.250;2023-05-15T06:23:37;7.87;;;7.17;;
5454;SDS011;2750;49.050;9.250;2023-05-15T06:28:39;6.83;;;6.13;;
5454;SDS011;2750;49.050;9.250;2023-05-15T06:33:41;7.83;;;7.23;;
5454;SDS011;2750;49.050;9.250;2023-05-15T06:38:43;8.03;;;7.33;;
5454;SDS011;2750;49.050;9.250;2023-05-15T06:43:44;7.50;;;6.90;;
5454;SDS011;2750;49.050;9.250;2023-05-15T06:48:47;6.97;;;6.37;;
5454;SDS011;2750;49.050;9.250;2023-05-15T06:53:49;5.63;;;5.23;;
5454;SDS011;2750;49.050;9.250;2023-05-15T06:58:50;7.03;;;5.70;;
5454;SDS011;2750;49.050;9.250;2023-05-15T07:03:53;6.80;;;6.20;;
5454;SDS011;2750;49.050;9.250;2023-05-15T07:08:54;6.43;;;5.83;;
5454;SDS011;2750;49.050;9.250;2023-05-15T07:13:56;6.57;;;5.97;;
5454;SDS011;2750;49.050;9.250;2023-05-15T07:18:59;8.13;;;6.47;;
5454;SDS011;2750;49.050;9.250;2023-05-15T07:24:00;5.87;;;5.30;;
5454;SDS011;2750;49.050;9.250;2023-05-15T07:29:02;6.03;;;5.33;;
5454;SDS011;2750;49.050;9.250;2023-05-15T07:34:05;5.57;;;5.13;;
5454;SDS011;2750;49.050;9.250;2023-05-15T07:39:06;6.00;;;5.43;;
5454;SDS011;2750;49.050;9.250;2023-05-15T07:44:08;6.13;;;5.53;;
5454;SDS011;2750;49.050;9.250;2023-05-15T07:49:11;6.43;;;5.83;;
5454;SDS011;2750;49.050;9.250;2023-05-15T07:54:12;5.50;;;5.00;;
5454;SDS011;2750;49.050;9.250;2023-05-15T07:59:13;7.15;;;5.68;;
5454;SDS011;2750;49.050;9.250;2023-05-15T08:04:17;6.53;;;5.93;;
5454;SDS011;2750;49.050;9.250;2023-05-15T08:09:18;6.37;;;5.70;;
5454;SDS011;2750;49.050;9.250;2023-05-15T08:14:19;5.80;;;5.30;;
5454;SDS011;2750;49.050;9.250;2023-05-15T08:19:22;6.53;;;5.93;;
5454;SDS011;2750;49.050;9.250;2023-05-15T08:24:24;6.23;;;5.67;;
5454;SDS011;2750;49.050;9.250;2023-05-15T08:29:25;6.10;;;5.60;;
5454;SDS011;2750;49.050;9.250;2023-05-15T08:34:28;5.70;;;5.20;;
5454;SDS011;2750;49.050;9.250;2023-05-15T08:39:30;5.97;;;5.40;;
5454;SDS011;2750;49.050;9.250;2023-05-15T08:44:31;5.83;;;5.30;;
5454;SDS011;2750;49.050;9.250;2023-05-15T08:49:41;5.57;;;5.03;;
5454;SDS011;2750;49.050;9.250;2023-05-15T08:54:48;5.78;;;4.43;;
5454;SDS011;2750;49.050;9.250;2023-05-15T08:59:50;6.55;;;5.97;;
5454;SDS011;2750;49.050;9.250;2023-05-15T09:04:55;6.23;;;5.63;;
5454;SDS011;2750;49.050;9.250;2023-05-15T09:09:56;5.70;;;5.20;;
5454;SDS011;2750;49.050;9.250;2023-05-15T09:15:08;5.93;;;5.43;;
5454;SDS011;2750;49.050;9.250;2023-05-15T09:20:25;6.33;;;5.73;;
5454;SDS011;2750;49.050;9.250;2023-05-15T09:25:31;6.47;;;5.87;;
5454;SDS011;2750;49.050;9.250;2023-05-15T09:30:36;5.70;;;5.17;;
5454;SDS011;2750;49.050;9.250;2023-05-15T09:35:39;5.67;;;5.17;;
5454;SDS011;2750;49.050;9.250;2023-05-15T09:40:41;6.93;;;5.00;;
5454;SDS011;2750;49.050;9.250;2023-05-15T09:45:42;5.97;;;5.00;;
5454;SDS011;2750;49.050;9.250;2023-05-15T09:50:48;6.83;;;5.57;;
5454;SDS011;2750;49.050;9.250;2023-05-15T09:55:51;6.90;;;5.53;;
5454;SDS011;2750;49.050;9.250;2023-05-15T10:00:53;6.17;;;5.60;;
5454;SDS011;2750;49.050;9.250;2023-05-15T10:05:59;5.67;;;5.03;;
5454;SDS011;2750;49.050;9.250;2023-05-15T10:11:03;6.27;;;5.67;;
5454;SDS011;2750;49.050;9.250;2023-05-15T10:16:05;7.37;;;5.97;;
5454;SDS011;2750;49.050;9.250;2023-05-15T10:21:09;6.03;;;5.43;;
5454;SDS011;2750;49.050;9.250;2023-05-15T10:26:13;5.07;;;4.63;;
5454;SDS011;2750;49.050;9.250;2023-05-15T10:31:20;5.83;;;5.33;;
5454;SDS011;2750;49.050;9.250;2023-05-15T10:36:24;5.20;;;4.80;;
5454;SDS011;2750;49.050;9.250;2023-05-15T10:41:27;5.13;;;4.73;;
5454;SDS011;2750;49.050;9.250;2023-05-15T10:46:30;5.40;;;5.00;;
5454;SDS011;2750;49.050;9.250;2023-05-15T10:51:36;5.20;;;4.70;;
5454;SDS011;2750;49.050;9.250;2023-05-15T10:56:39;5.00;;;4.60;;
5454;SDS011;2750;49.050;9.250;2023-05-15T11:01:42;5.67;;;4.73;;
5454;SDS011;2750;49.050;9.250;2023-05-15T11:06:45;5.67;;;4.77;;
5454;SDS011;2750;49.050;9.250;2023-05-15T11:11:52;4.70;;;4.33;;
5454;SDS011;2750;49.050;9.250;2023-05-15T11:16:56;5.33;;;4.80;;
5454;SDS011;2750;49.050;9.250;2023-05-15T11:22:15;4.70;;;4.30;;
5454;SDS011;2750;49.050;9.250;2023-05-15T11:27:19;5.10;;;4.70;;
5454;SDS011;2750;49.050;9.250;2023-05-15T11:32:31;4.13;;;3.70;;
5454;SDS011;2750;49.050;9.250;2023-05-15T11:37:42;3.90;;;3.40;;
5454;SDS011;2750;49.050;9.250;2023-05-15T11:42:57;3.90;;;3.60;;
5454;SDS011;2750;49.050;9.250;2023-05-15T11:48:00;3.97;;;3.67;;
5454;SDS011;2750;49.050;9.250;2023-05-15T11:53:05;3.37;;;3.17;;
5454;SDS011;2750;49.050;9.250;2023-05-15T11:58:11;3.43;;;3.13;;
5454;SDS011;2750;49.050;9.250;2023-05-15T12:03:15;3.20;;;2.70;;
5454;SDS011;2750;49.050;9.250;2023-05-15T12:08:19;3.43;;;3.13;;
5454;SDS011;2750;49.050;9.250;2023-05-15T12:13:21;3.50;;;3.20;;
5454;SDS011;2750;49.050;9.250;2023-05-15T12:18:22;3.90;;;3.70;;
5454;SDS011;2750;49.050;9.250;2023-05-15T12:23:26;6.00;;;3.33;;
5454;SDS011;2750;49.050;9.250;2023-05-15T12:28:28;3.77;;;3.47;;
5454;SDS011;2750;49.050;9.250;2023-05-15T12:33:30;4.67;;;3.57;;
5454;SDS011;2750;49.050;9.250;2023-05-15T12:38:33;3.30;;;3.00;;
5454;SDS011;2750;49.050;9.250;2023-05-15T12:43:36;4.33;;;2.80;;
5454;SDS011;2750;49.050;9.250;2023-05-15T12:48:37;4.37;;;3.27;;
5454;SDS011;2750;49.050;9.250;2023-05-15T12:53:42;3.10;;;2.90;;
5454;SDS011;2750;49.050;9.250;2023-05-15T12:58:46;3.38;;;3.08;;
5454;SDS011;2750;49.050;9.250;2023-05-15T13:03:48;3.40;;;3.10;;
5454;SDS011;2750;49.050;9.250;2023-05-15T13:08:51;3.75;;;3.45;;
5454;SDS011;2750;49.050;9.250;2023-05-15T13:13:54;3.17;;;2.97;;
5454;SDS011;2750;49.050;9.250;2023-05-15T13:18:55;3.83;;;2.70;;
5454;SDS011;2750;49.050;9.250;2023-05-15T13:23:59;3.87;;;2.80;;
5454;SDS011;2750;49.050;9.250;2023-05-15T13:29:00;2.80;;;2.60;;
5454;SDS011;2750;49.050;9.250;2023-05-15T13:34:02;3.00;;;2.80;;
5454;SDS011;2750;49.050;9.250;2023-05-15T13:39:05;3.38;;;2.40;;
5454;SDS011;2750;49.050;9.250;2023-05-15T13:44:07;2.53;;;2.33;;
5454;SDS011;2750;49.050;9.250;2023-05-15T13:49:08;3.60;;;2.65;;
5454;SDS011;2750;49.050;9.250;2023-05-15T13:54:11;3.22;;;2.80;;
5454;SDS011;2750;49.050;9.250;2023-05-15T13:59:13;3.20;;;3.00;;
5454;SDS011;2750;49.050;9.250;2023-05-15T14:04:14;4.35;;;3.40;;
5454;SDS011;2750;49.050;9.250;2023-05-15T14:09:17;3.85;;;3.55;;
5454;SDS011;2750;49.050;9.250;2023-05-15T14:14:19;3.95;;;3.65;;
5454;SDS011;2750;49.050;9.250;2023-05-15T14:19:20;3.83;;;3.53;;
5454;SDS011;2750;49.050;9.250;2023-05-15T14:24:23;4.87;;;3.70;;
5454;SDS011;2750;49.050;9.250;2023-05-15T14:29:24;4.93;;;3.83;;
5454;SDS011;2750;49.050;9.250;2023-05-15T14:34:26;4.53;;;4.23;;
5454;SDS011;2750;49.050;9.250;2023-05-15T14:39:30;4.40;;;4.00;;
5454;SDS011;2750;49.050;9.250;2023-05-15T14:44:32;4.83;;;4.47;;
5454;SDS011;2750;49.050;9.250;2023-05-15T14:49:34;6.47;;;4.80;;
5454;SDS011;2750;49.050;9.250;2023-05-15T14:54:37;4.80;;;4.40;;
5454;SDS011;2750;49.050;9.250;2023-05-15T14:59:39;4.63;;;4.23;;
5454;SDS011;2750;49.050;9.250;2023-05-15T15:04:41;4.93;;;4.27;;
5454;SDS011;2750;49.050;9.250;2023-05-15T15:09:43;4.50;;;4.10;;
5454;SDS011;2750;49.050;9.250;2023-05-15T15:14:45;4.97;;;4.57;;
5454;SDS011;2750;49.050;9.250;2023-05-15T15:19:46;5.00;;;4.50;;
5454;SDS011;2750;49.050;9.250;2023-05-15T15:24:50;4.63;;;4.03;;
5454;SDS011;2750;49.050;9.250;2023-05-15T15:29:51;4.30;;;3.90;;
5454;SDS011;2750;49.050;9.250;2023-05-15T15:34:53;4.73;;;4.33;;
5454;SDS011;2750;49.050;9.250;2023-05-15T15:39:57;4.30;;;3.90;;
5454;SDS011;2750;49.050;9.250;2023-05-15T15:44:59;3.77;;;3.47;;
5454;SDS011;2750;49.050;9.250;2023-05-15T15:50:01;4.60;;;4.03;;
5454;SDS011;2750;49.050;9.250;2023-05-15T15:55:05;5.20;;;4.70;;
5454;SDS011;2750;49.050;9.250;2023-05-15T16:00:07;4.80;;;4.40;;
5454;SDS011;2750;49.050;9.250;2023-05-15T16:05:09;4.80;;;3.88;;
5454;SDS011;2750;49.050;9.250;2023-05-15T16:10:12;4.70;;;4.30;;
5454;SDS011;2750;49.050;9.250;2023-05-15T16:15:14;3.83;;;3.53;;
5454;SDS011;2750;49.050;9.250;2023-05-15T16:20:16;4.10;;;3.70;;
5454;SDS011;2750;49.050;9.250;2023-05-15T16:25:19;6.63;;;6.05;;
5454;SDS011;2750;49.050;9.250;2023-05-15T16:30:20;7.57;;;6.40;;
5454;SDS011;2750;49.050;9.250;2023-05-15T16:35:22;7.47;;;6.57;;
5454;SDS011;2750;49.050;9.250;2023-05-15T16:40:24;6.60;;;5.63;;
5454;SDS011;2750;49.050;9.250;2023-05-15T16:45:26;6.73;;;5.90;;
5454;SDS011;2750;49.050;9.250;2023-05-15T16:50:29;5.33;;;4.90;;
5454;SDS011;2750;49.050;9.250;2023-05-15T16:55:32;6.27;;;5.03;;
5454;SDS011;2750;49.050;9.250;2023-05-15T17:00:34;5.90;;;5.30;;
5454;SDS011;2750;49.050;9.250;2023-05-15T17:05:35;5.37;;;4.87;;
5454;SDS011;2750;49.050;9.250;2023-05-15T17:10:38;5.13;;;4.60;;
5454;SDS011;2750;49.050;9.250;2023-05-15T17:15:40;5.13;;;4.73;;
5454;SDS011;2750;49.050;9.250;2023-05-15T17:20:41;6.23;;;5.10;;
5454;SDS011;2750;49.050;9.250;2023-05-15T17:25:44;5.30;;;4.80;;
5454;SDS011;2750;49.050;9.250;2023-05-15T17:30:45;5.20;;;4.77;;
5454;SDS011;2750;49.050;9.250;2023-05-15T17:35:47;6.30;;;5.23;;
5454;SDS011;2750;49.050;9.250;2023-05-15T17:40:50;5.00;;;4.60;;
5454;SDS011;2750;49.050;9.250;2023-05-15T17:45:51;5.50;;;5.00;;
5454;SDS011;2750;49.050;9.250;2023-05-15T17:50:53;5.40;;;4.90;;
5454;SDS011;2750;49.050;9.250;2023-05-15T17:55:56;6.93;;;6.23;;
5454;SDS011;2750;49.050;9.250;2023-05-15T18:00:57;6.00;;;5.33;;
5454;SDS011;2750;49.050;9.250;2023-05-15T18:05:59;6.60;;;6.00;;
5454;SDS011;2750;49.050;9.250;2023-05-15T18:11:02;5.77;;;5.27;;
5454;SDS011;2750;49.050;9.250;2023-05-15T18:16:03;6.10;;;5.40;;
5454;SDS011;2750;49.050;9.250;2023-05-15T18:21:06;6.13;;;5.60;;
5454;SDS011;2750;49.050;9.250;2023-05-15T18:26:09;6.07;;;5.57;;
5454;SDS011;2750;49.050;9.250;2023-05-15T18:31:11;7.00;;;5.37;;
5454;SDS011;2750;49.050;9.250;2023-05-15T18:36:12;6.47;;;5.13;;
5454;SDS011;2750;49.050;9.250;2023-05-15T18:41:15;5.17;;;4.77;;
5454;SDS011;2750;49.050;9.250;2023-05-15T18:46:17;6.07;;;5.47;;
5454;SDS011;2750;49.050;9.250;2023-05-15T18:51:18;6.37;;;5.77;;
5454;SDS011;2750;49.050;9.250;2023-05-15T18:56:21;5.63;;;5.13;;
5454;SDS011;2750;49.050;9.250;2023-05-15T19:01:23;5.83;;;5.30;;
5454;SDS011;2750;49.050;9.250;2023-05-15T19:06:25;8.03;;;5.80;;
5454;SDS011;2750;49.050;9.250;2023-05-15T19:11:28;6.37;;;5.77;;
5454;SDS011;2750;49.050;9.250;2023-05-15T19:16:29;6.67;;;5.97;;
5454;SDS011;2750;49.050;9.250;2023-05-15T19:21:31;7.30;;;6.53;;
5454;SDS011;2750;49.050;9.250;2023-05-15T19:26:34;8.10;;;7.40;;
5454;SDS011;2750;49.050;9.250;2023-05-15T19:31:36;8.50;;;7.70;;
5454;SDS011;2750;49.050;9.250;2023-05-15T19:36:38;7.53;;;6.93;;
5454;SDS011;2750;49.050;9.250;2023-05-15T19:41:41;8.00;;;7.30;;
5454;SDS011;2750;49.050;9.250;2023-05-15T19:46:42;8.73;;;7.60;;
5454;SDS011;2750;49.050;9.250;2023-05-15T19:51:45;9.10;;;8.23;;
5454;SDS011;2750;49.050;9.250;2023-05-15T19:56:48;9.33;;;7.93;;
5454;SDS011;2750;49.050;9.250;2023-05-15T20:01:49;9.30;;;8.40;;
5454;SDS011;2750;49.050;9.250;2023-05-15T20:06:51;7.80;;;7.10;;
5454;SDS011;2750;49.050;9.250;2023-05-15T20:11:54;8.33;;;7.53;;
5454;SDS011;2750;49.050;9.250;2023-05-15T20:16:56;8.27;;;7.50;;
5454;SDS011;2750;49.050;9.250;2023-05-15T20:21:57;8.70;;;7.90;;
5454;SDS011;2750;49.050;9.250;2023-05-15T20:27:00;8.10;;;7.30;;
5454;SDS011;2750;49.050;9.250;2023-05-15T20:32:03;8.93;;;8.13;;
5454;SDS011;2750;49.050;9.250;2023-05-15T20:37:05;8.63;;;7.80;;
5454;SDS011;2750;49.050;9.250;2023-05-15T20:42:08;9.47;;;8.57;;
5454;SDS011;2750;49.050;9.250;2023-05-15T20:47:09;9.17;;;7.20;;
5454;SDS011;2750;49.050;9.250;2023-05-15T20:52:11;8.47;;;7.60;;
5454;SDS011;2750;49.050;9.250;2023-05-15T20:57:14;10.63;;;9.40;;
5454;SDS011;2750;49.050;9.250;2023-05-15T21:02:15;10.30;;;9.23;;
5454;SDS011;2750;49.050;9.250;2023-05-15T21:07:17;9.10;;;7.40;;
5454;SDS011;2750;49.050;9.250;2023-05-15T21:12:20;9.63;;;7.70;;
5454;SDS011;2750;49.050;9.250;2023-05-15T21:17:21;7.93;;;7.13;;
5454;SDS011;2750;49.050;9.250;2023-05-15T21:22:23;9.33;;;8.33;;
5454;SDS011;2750;49.050;9.250;2023-05-15T21:27:26;9.80;;;8.80;;
5454;SDS011;2750;49.050;9.250;2023-05-15T21:32:27;9.93;;;8.50;;
5454;SDS011;2750;49.050;9.250;2023-05-15T21:37:29;8.70;;;7.80;;
5454;SDS011;2750;49.050;9.250;2023-05-15T21:42:32;9.37;;;8.47;;
5454;SDS011;2750;49.050;9.250;2023-05-15T21:47:33;10.67;;;9.57;;
5454;SDS011;2750;49.050;9.250;2023-05-15T21:52:35;10.67;;;9.57;;
5454;SDS011;2750;49.050;9.250;2023-05-15T21:57:38;10.60;;;9.37;;
5454;SDS011;2750;49.050;9.250;2023-05-15T22:02:39;11.07;;;8.90;;
5454;SDS011;2750;49.050;9.250;2023-05-15T22:07:40;9.47;;;8.57;;
5454;SDS011;2750;49.050;9.250;2023-05-15T22:12:44;10.63;;;9.53;;
5454;SDS011;2750;49.050;9.250;2023-05-15T22:17:46;9.97;;;8.97;;
5454;SDS011;2750;49.050;9.250;2023-05-15T22:22:47;11.77;;;10.67;;
5454;SDS011;2750;49.050;9.250;2023-05-15T22:27:50;12.87;;;11.57;;
5454;SDS011;2750;49.050;9.250;2023-05-15T22:32:52;13.07;;;11.30;;
5454;SDS011;2750;49.050;9.250;2023-05-15T22:37:53;12.10;;;10.30;;
5454;SDS011;2750;49.050;9.250;2023-05-15T22:42:57;13.67;;;11.87;;
5454;SDS011;2750;49.050;9.250;2023-05-15T22:47:58;12.43;;;11.13;;
5454;SDS011;2750;49.050;9.250;2023-05-15T22:53:00;13.10;;;11.47;;
5454;SDS011;2750;49.050;9.250;2023-05-15T22:58:03;10.97;;;9.87;;
5454;SDS011;2750;49.050;9.250;2023-05-15T23:03:04;13.23;;;11.70;;
5454;SDS011;2750;49.050;9.250;2023-05-15T23:08:06;16.77;;;11.97;;
5454;SDS011;2750;49.050;9.250;2023-05-15T23:13:09;13.77;;;12.37;;
5454;SDS011;2750;49.050;9.250;2023-05-15T23:18:11;15.40;;;13.27;;
5454;SDS011;2750;49.050;9.250;2023-05-15T23:23:13;14.93;;;12.90;;
5454;SDS011;2750;49.050;9.250;2023-05-15T23:28:16;16.27;;;12.67;;
5454;SDS011;2750;49.050;9.250;2023-05-15T23:33:17;14.77;;;12.60;;
5454;SDS011;2750;49.050;9.250;2023-05-15T23:38:19;15.83;;;13.67;;
5454;SDS011;2750;49.050;9.250;2023-05-15T23:43:23;15.97;;;14.30;;
5454;SDS011;2750;49.050;9.250;2023-05-15T23:48:25;16.53;;;14.83;;
5454;SDS011;2750;49.050;9.250;2023-05-15T23:53:27;17.67;;;13.63;;
5454;SDS011;2750;49.050;9.250;2023-05-15T23:58:29;16.17;;;14.57;;
